sensor_id;sensor_type;location;lat;lon;timestamp;temperature;humidity
1476;DHT22;730;48.870;12.542;2023-07-16T00:00:10;25.20;1.00
1476;DHT22;730;48.870;12.542;2023-07-16T00:02:41;25.20;1.00
1476;DHT22;730;48.870;12.542;2023-07-16T00:05:08;25.20;1.00
1476;DHT22;730;48.870;12.542;2023-07-16T00:07:34;25.10;1.00
1476;DHT22;730;48.870;12.542;2023-07-16T00:10:04;25.10;1.00
1476;DHT22;730;48.870;12.542;2023-07-16T00:12:31;25.10;1.00
1476;DHT22;730;48.870;12.542;2023-07-16T00:14:57;25.10;1.00
1476;DHT22;730;48.870;12.542;2023-07-16T00:17:23;25.10;1.00
1476;DHT22;730;48.870;12.542;2023-07-16T00:19:49;25.10;1.00
1476;DHT22;730;48.870;12.542;2023-07-16T00:22:17;25.10;1.00
1476;DHT22;730;48.870;12.542;2023-07-16T00:24:43;25.10;1.00
1476;DHT22;730;48.870;12.542;2023-07-16T00:27:09;25.10;1.00
1476;DHT22;730;48.870;12.542;2023-07-16T00:29:35;25.10;1.00
1476;DHT22;730;48.870;12.542;2023-07-16T00:32:01;25.20;1.00
1476;DHT22;730;48.870;12.542;2023-07-16T00:34:30;25.10;1.00
1476;DHT22;730;48.870;12.542;2023-07-16T00:36:56;25.10;1.00
1476;DHT22;730;48.870;12.542;2023-07-16T00:39:30;25.00;1.00
1476;DHT22;730;48.870;12.542;2023-07-16T00:41:56;25.00;1.00
1476;DHT22;730;48.870;12.542;2023-07-16T00:44:23;24.90;1.00
1476;DHT22;730;48.870;12.542;2023-07-16T00:46:50;24.90;1.00
1476;DHT22;730;48.870;12.542;2023-07-16T00:49:16;24.90;1.00
1476;DHT22;730;48.870;12.542;2023-07-16T00:51:42;25.00;1.00
1476;DHT22;730;48.870;12.542;2023-07-16T00:54:08;25.00;1.00
1476;DHT22;730;48.870;12.542;2023-07-16T00:56:37;24.90;1.00
1476;DHT22;730;48.870;12.542;2023-07-16T00:59:03;24.90;1.00
1476;DHT22;730;48.870;12.542;2023-07-16T01:01:29;25.00;1.00
1476;DHT22;730;48.870;12.542;2023-07-16T01:03:55;24.90;1.00
1476;DHT22;730;48.870;12.542;2023-07-16T01:06:40;25.00;1.00
1476;DHT22;730;48.870;12.542;2023-07-16T01:09:10;25.00;1.00
1476;DHT22;730;48.870;12.542;2023-07-16T01:11:37;24.90;1.00
1476;DHT22;730;48.870;12.542;2023-07-16T01:14:06;24.70;1.00
1476;DHT22;730;48.870;12.542;2023-07-16T01:16:32;24.70;1.00
1476;DHT22;730;48.870;12.542;2023-07-16T01:19:04;24.60;1.00
1476;DHT22;730;48.870;12.542;2023-07-16T01:21:52;24.40;1.00
1476;DHT22;730;48.870;12.542;2023-07-16T01:27:50;24.10;1.00
1476;DHT22;730;48.870;12.542;2023-07-16T01:30:21;23.90;1.00
1476;DHT22;730;48.870;12.542;2023-07-16T01:32:48;23.50;1.00
1476;DHT22;730;48.870;12.542;2023-07-16T01:35:15;23.30;1.00
1476;DHT22;730;48.870;12.542;2023-07-16T01:37:42;23.00;1.00
1476;DHT22;730;48.870;12.542;2023-07-16T01:40:09;22.80;1.00
1476;DHT22;730;48.870;12.542;2023-07-16T01:42:35;22.70;1.00
1476;DHT22;730;48.870;12.542;2023-07-16T01:45:01;22.70;1.00
1476;DHT22;730;48.870;12.542;2023-07-16T01:48:16;22.60;1.00
1476;DHT22;730;48.870;12.542;2023-07-16T01:50:22;22.50;1.00
1476;DHT22;730;48.870;12.542;2023-07-16T01:52:48;22.40;1.00
1476;DHT22;730;48.870;12.542;2023-07-16T01:55:14;22.40;1.00
1476;DHT22;730;48.870;12.542;2023-07-16T01:57:40;22.30;1.00
1476;DHT22;730;48.870;12.542;2023-07-16T02:00:07;22.30;1.00
1476;DHT22;730;48.870;12.542;2023-07-16T02:02:37;22.30;1.00
1476;DHT22;730;48.870;12.542;2023-07-16T02:05:03;22.20;1.00
1476;DHT22;730;48.870;12.542;2023-07-16T02:07:30;22.10;1.00
1476;DHT22;730;48.870;12.542;2023-07-16T02:09:57;22.20;1.40
1476;DHT22;730;48.870;12.542;2023-07-16T02:12:23;22.10;1.90
1476;DHT22;730;48.870;12.542;2023-07-16T02:14:54;22.20;2.50
1476;DHT22;730;48.870;12.542;2023-07-16T02:17:21;22.20;3.10
1476;DHT22;730;48.870;12.542;2023-07-16T02:19:47;22.10;2.70
1476;DHT22;730;48.870;12.542;2023-07-16T02:22:13;22.20;2.10
1476;DHT22;730;48.870;12.542;2023-07-16T02:24:39;22.10;1.30
1476;DHT22;730;48.870;12.542;2023-07-16T02:27:05;22.10;1.80
1476;DHT22;730;48.870;12.542;2023-07-16T02:29:31;22.10;2.10
1476;DHT22;730;48.870;12.542;2023-07-16T02:31:57;22.00;1.70
1476;DHT22;730;48.870;12.542;2023-07-16T02:34:23;22.00;2.50
1476;DHT22;730;48.870;12.542;2023-07-16T02:36:50;22.10;2.50
1476;DHT22;730;48.870;12.542;2023-07-16T02:39:16;22.00;2.20
1476;DHT22;730;48.870;12.542;2023-07-16T02:41:42;22.10;2.50
1476;DHT22;730;48.870;12.542;2023-07-16T02:44:08;22.10;2.30
1476;DHT22;730;48.870;12.542;2023-07-16T02:46:34;22.10;2.00
1476;DHT22;730;48.870;12.542;2023-07-16T02:49:02;22.10;1.80
1476;DHT22;730;48.870;12.542;2023-07-16T02:51:28;22.10;1.70
1476;DHT22;730;48.870;12.542;2023-07-16T02:53:54;22.20;1.50
1476;DHT22;730;48.870;12.542;2023-07-16T02:56:20;22.10;1.10
1476;DHT22;730;48.870;12.542;2023-07-16T02:58:47;22.20;1.00
1476;DHT22;730;48.870;12.542;2023-07-16T03:01:13;22.20;1.00
1476;DHT22;730;48.870;12.542;2023-07-16T03:03:45;22.20;1.00
1476;DHT22;730;48.870;12.542;2023-07-16T03:06:11;22.20;1.00
1476;DHT22;730;48.870;12.542;2023-07-16T03:08:37;22.20;1.00
1476;DHT22;730;48.870;12.542;2023-07-16T03:11:03;22.20;1.00
1476;DHT22;730;48.870;12.542;2023-07-16T03:13:29;22.20;1.00
1476;DHT22;730;48.870;12.542;2023-07-16T03:15:55;22.10;1.00
1476;DHT22;730;48.870;12.542;2023-07-16T03:18:21;22.10;1.00
1476;DHT22;730;48.870;12.542;2023-07-16T03:20:47;22.10;1.00
1476;DHT22;730;48.870;12.542;2023-07-16T03:23:13;22.10;1.20
1476;DHT22;730;48.870;12.542;2023-07-16T03:25:40;22.10;1.30
1476;DHT22;730;48.870;12.542;2023-07-16T03:28:06;22.10;1.40
1476;DHT22;730;48.870;12.542;2023-07-16T03:30:32;22.00;1.50
1476;DHT22;730;48.870;12.542;2023-07-16T03:32:59;22.00;1.40
1476;DHT22;730;48.870;12.542;2023-07-16T03:35:25;22.00;1.70
1476;DHT22;730;48.870;12.542;2023-07-16T03:37:51;22.00;1.80
1476;DHT22;730;48.870;12.542;2023-07-16T03:40:25;22.00;2.10
1476;DHT22;730;48.870;12.542;2023-07-16T03:42:52;22.00;2.30
1476;DHT22;730;48.870;12.542;2023-07-16T03:45:18;21.90;2.40
1476;DHT22;730;48.870;12.542;2023-07-16T03:47:45;21.90;2.60
1476;DHT22;730;48.870;12.542;2023-07-16T03:50:11;22.00;2.70
1476;DHT22;730;48.870;12.542;2023-07-16T03:52:37;22.00;2.90
1476;DHT22;730;48.870;12.542;2023-07-16T03:55:03;22.00;3.30
1476;DHT22;730;48.870;12.542;2023-07-16T03:57:30;21.90;3.60
1476;DHT22;730;48.870;12.542;2023-07-16T03:59:56;21.90;3.70
1476;DHT22;730;48.870;12.542;2023-07-16T04:02:24;21.90;4.00
1476;DHT22;730;48.870;12.542;2023-07-16T04:04:50;21.90;4.10
1476;DHT22;730;48.870;12.542;2023-07-16T04:07:17;21.90;4.30
1476;DHT22;730;48.870;12.542;2023-07-16T04:09:43;21.90;4.20
1476;DHT22;730;48.870;12.542;2023-07-16T04:12:10;21.90;4.10
1476;DHT22;730;48.870;12.542;2023-07-16T04:14:36;22.00;4.10
1476;DHT22;730;48.870;12.542;2023-07-16T04:17:02;22.00;4.10
1476;DHT22;730;48.870;12.542;2023-07-16T04:19:33;22.10;3.80
1476;DHT22;730;48.870;12.542;2023-07-16T04:22:00;22.10;3.80
1476;DHT22;730;48.870;12.542;2023-07-16T04:24:26;21.90;4.20
1476;DHT22;730;48.870;12.542;2023-07-16T04:26:53;21.80;5.10
1476;DHT22;730;48.870;12.542;2023-07-16T04:29:19;21.90;5.20
1476;DHT22;730;48.870;12.542;2023-07-16T04:31:45;22.00;5.10
1476;DHT22;730;48.870;12.542;2023-07-16T04:34:11;22.00;4.90
1476;DHT22;730;48.870;12.542;2023-07-16T04:36:38;22.10;4.60
1476;DHT22;730;48.870;12.542;2023-07-16T04:39:04;22.00;5.10
1476;DHT22;730;48.870;12.542;2023-07-16T04:41:31;22.10;5.00
1476;DHT22;730;48.870;12.542;2023-07-16T04:43:57;22.10;4.50
1476;DHT22;730;48.870;12.542;2023-07-16T04:46:23;21.90;4.70
1476;DHT22;730;48.870;12.542;2023-07-16T04:48:49;21.70;5.70
1476;DHT22;730;48.870;12.542;2023-07-16T04:51:15;21.70;6.70
1476;DHT22;730;48.870;12.542;2023-07-16T04:53:41;21.40;8.00
1476;DHT22;730;48.870;12.542;2023-07-16T04:56:14;21.40;9.10
1476;DHT22;730;48.870;12.542;2023-07-16T04:58:42;21.50;8.70
1476;DHT22;730;48.870;12.542;2023-07-16T05:01:09;21.60;8.30
1476;DHT22;730;48.870;12.542;2023-07-16T05:03:35;21.60;7.80
1476;DHT22;730;48.870;12.542;2023-07-16T05:06:02;21.60;7.70
1476;DHT22;730;48.870;12.542;2023-07-16T05:08:28;21.60;7.50
1476;DHT22;730;48.870;12.542;2023-07-16T05:10:54;21.70;7.30
1476;DHT22;730;48.870;12.542;2023-07-16T05:13:20;21.70;7.40
1476;DHT22;730;48.870;12.542;2023-07-16T05:15:46;21.70;7.30
1476;DHT22;730;48.870;12.542;2023-07-16T05:18:13;21.70;7.70
1476;DHT22;730;48.870;12.542;2023-07-16T05:20:39;21.60;8.00
1476;DHT22;730;48.870;12.542;2023-07-16T05:23:05;21.60;8.40
1476;DHT22;730;48.870;12.542;2023-07-16T05:25:31;21.50;9.10
1476;DHT22;730;48.870;12.542;2023-07-16T05:27:57;21.70;9.10
1476;DHT22;730;48.870;12.542;2023-07-16T05:30:23;21.70;9.10
1476;DHT22;730;48.870;12.542;2023-07-16T05:32:49;21.80;8.40
1476;DHT22;730;48.870;12.542;2023-07-16T05:35:15;21.80;7.90
1476;DHT22;730;48.870;12.542;2023-07-16T05:37:41;22.00;8.00
1476;DHT22;730;48.870;12.542;2023-07-16T05:40:07;22.10;7.50
1476;DHT22;730;48.870;12.542;2023-07-16T05:42:36;22.20;6.80
1476;DHT22;730;48.870;12.542;2023-07-16T05:45:02;22.30;6.00
1476;DHT22;730;48.870;12.542;2023-07-16T05:47:29;22.30;5.40
1476;DHT22;730;48.870;12.542;2023-07-16T05:49:55;22.50;4.50
1476;DHT22;730;48.870;12.542;2023-07-16T05:52:21;22.60;2.90
1476;DHT22;730;48.870;12.542;2023-07-16T05:54:47;22.60;2.20
1476;DHT22;730;48.870;12.542;2023-07-16T05:57:14;22.70;1.60
1476;DHT22;730;48.870;12.542;2023-07-16T05:59:41;22.80;1.30
1476;DHT22;730;48.870;12.542;2023-07-16T06:02:07;22.90;1.00
1476;DHT22;730;48.870;12.542;2023-07-16T06:04:33;23.00;1.00
1476;DHT22;730;48.870;12.542;2023-07-16T06:06:59;23.00;1.00
1476;DHT22;730;48.870;12.542;2023-07-16T06:09:25;23.10;1.00
1476;DHT22;730;48.870;12.542;2023-07-16T06:11:51;23.20;1.00
1476;DHT22;730;48.870;12.542;2023-07-16T06:14:17;23.30;1.00
1476;DHT22;730;48.870;12.542;2023-07-16T06:16:43;23.50;1.00
1476;DHT22;730;48.870;12.542;2023-07-16T06:19:09;23.60;1.00
1476;DHT22;730;48.870;12.542;2023-07-16T06:21:35;23.70;1.00
1476;DHT22;730;48.870;12.542;2023-07-16T06:24:01;23.70;1.00
1476;DHT22;730;48.870;12.542;2023-07-16T06:26:27;23.90;1.00
1476;DHT22;730;48.870;12.542;2023-07-16T06:29:03;23.90;1.00
1476;DHT22;730;48.870;12.542;2023-07-16T06:31:35;24.10;1.00
1476;DHT22;730;48.870;12.542;2023-07-16T06:34:02;24.10;1.00
1476;DHT22;730;48.870;12.542;2023-07-16T06:36:28;24.20;1.00
1476;DHT22;730;48.870;12.542;2023-07-16T06:38:54;24.20;1.00
1476;DHT22;730;48.870;12.542;2023-07-16T06:41:29;24.20;1.00
1476;DHT22;730;48.870;12.542;2023-07-16T06:43:56;24.20;1.00
1476;DHT22;730;48.870;12.542;2023-07-16T06:46:22;24.20;1.00
1476;DHT22;730;48.870;12.542;2023-07-16T06:48:48;24.20;1.00
1476;DHT22;730;48.870;12.542;2023-07-16T06:51:14;24.20;1.00
1476;DHT22;730;48.870;12.542;2023-07-16T06:53:40;24.20;1.00
1476;DHT22;730;48.870;12.542;2023-07-16T06:56:07;24.20;1.00
1476;DHT22;730;48.870;12.542;2023-07-16T06:58:33;24.20;1.00
1476;DHT22;730;48.870;12.542;2023-07-16T07:01:00;24.10;1.00
1476;DHT22;730;48.870;12.542;2023-07-16T07:03:26;24.00;1.00
1476;DHT22;730;48.870;12.542;2023-07-16T07:05:52;24.00;1.00
1476;DHT22;730;48.870;12.542;2023-07-16T07:08:18;23.90;1.00
1476;DHT22;730;48.870;12.542;2023-07-16T07:10:46;23.90;1.00
1476;DHT22;730;48.870;12.542;2023-07-16T07:13:12;23.80;1.00
1476;DHT22;730;48.870;12.542;2023-07-16T07:15:38;23.80;1.00
1476;DHT22;730;48.870;12.542;2023-07-16T07:18:04;23.80;1.00
1476;DHT22;730;48.870;12.542;2023-07-16T07:20:30;23.90;1.00
1476;DHT22;730;48.870;12.542;2023-07-16T07:22:56;23.90;1.00
1476;DHT22;730;48.870;12.542;2023-07-16T07:25:22;23.90;1.00
1476;DHT22;730;48.870;12.542;2023-07-16T07:27:48;24.00;1.00
1476;DHT22;730;48.870;12.542;2023-07-16T07:30:15;24.10;1.00
1476;DHT22;730;48.870;12.542;2023-07-16T07:32:51;24.20;1.00
1476;DHT22;730;48.870;12.542;2023-07-16T07:35:17;24.30;1.00
1476;DHT22;730;48.870;12.542;2023-07-16T07:37:43;24.30;1.00
1476;DHT22;730;48.870;12.542;2023-07-16T07:40:18;24.40;1.00
1476;DHT22;730;48.870;12.542;2023-07-16T07:42:45;24.50;1.00
1476;DHT22;730;48.870;12.542;2023-07-16T07:45:11;24.60;1.00
1476;DHT22;730;48.870;12.542;2023-07-16T07:47:37;24.70;1.00
1476;DHT22;730;48.870;12.542;2023-07-16T07:50:03;24.80;1.00
1476;DHT22;730;48.870;12.542;2023-07-16T07:52:30;24.90;1.00
1476;DHT22;730;48.870;12.542;2023-07-16T07:54:56;24.90;1.00
1476;DHT22;730;48.870;12.542;2023-07-16T07:57:22;24.90;1.00
1476;DHT22;730;48.870;12.542;2023-07-16T07:59:48;25.00;1.00
1476;DHT22;730;48.870;12.542;2023-07-16T08:02:17;25.20;1.00
1476;DHT22;730;48.870;12.542;2023-07-16T08:04:44;25.40;1.00
1476;DHT22;730;48.870;12.542;2023-07-16T08:07:11;25.50;1.00
1476;DHT22;730;48.870;12.542;2023-07-16T08:09:37;25.80;1.00
1476;DHT22;730;48.870;12.542;2023-07-16T08:12:04;25.90;1.00
1476;DHT22;730;48.870;12.542;2023-07-16T08:14:30;26.00;1.00
1476;DHT22;730;48.870;12.542;2023-07-16T08:16:56;26.10;1.00
1476;DHT22;730;48.870;12.542;2023-07-16T08:19:22;26.20;1.00
1476;DHT22;730;48.870;12.542;2023-07-16T08:21:48;26.30;1.00
1476;DHT22;730;48.870;12.542;2023-07-16T08:24:14;26.30;1.00
1476;DHT22;730;48.870;12.542;2023-07-16T08:26:40;26.30;1.00
1476;DHT22;730;48.870;12.542;2023-07-16T08:29:06;26.30;1.00
1476;DHT22;730;48.870;12.542;2023-07-16T08:31:33;26.20;1.00
1476;DHT22;730;48.870;12.542;2023-07-16T08:33:59;26.20;1.00
1476;DHT22;730;48.870;12.542;2023-07-16T08:36:25;26.20;1.00
1476;DHT22;730;48.870;12.542;2023-07-16T08:38:51;26.30;1.00
1476;DHT22;730;48.870;12.542;2023-07-16T08:41:17;26.40;1.00
1476;DHT22;730;48.870;12.542;2023-07-16T08:43:46;26.60;1.00
1476;DHT22;730;48.870;12.542;2023-07-16T08:46:14;26.80;1.00
1476;DHT22;730;48.870;12.542;2023-07-16T08:48:40;27.10;1.00
1476;DHT22;730;48.870;12.542;2023-07-16T08:51:09;27.40;1.00
1476;DHT22;730;48.870;12.542;2023-07-16T08:53:36;27.60;1.00
1476;DHT22;730;48.870;12.542;2023-07-16T08:56:03;27.70;1.00
1476;DHT22;730;48.870;12.542;2023-07-16T08:58:31;27.90;1.00
1476;DHT22;730;48.870;12.542;2023-07-16T09:01:01;28.20;1.00
1476;DHT22;730;48.870;12.542;2023-07-16T09:05:55;28.70;1.00
1476;DHT22;730;48.870;12.542;2023-07-16T09:08:21;28.90;1.00
1476;DHT22;730;48.870;12.542;2023-07-16T09:10:58;29.00;1.00
1476;DHT22;730;48.870;12.542;2023-07-16T09:13:24;29.20;1.00
1476;DHT22;730;48.870;12.542;2023-07-16T09:15:55;29.40;1.00
1476;DHT22;730;48.870;12.542;2023-07-16T09:18:23;29.60;1.00
1476;DHT22;730;48.870;12.542;2023-07-16T09:20:59;29.80;1.00
1476;DHT22;730;48.870;12.542;2023-07-16T09:23:30;29.80;1.00
1476;DHT22;730;48.870;12.542;2023-07-16T09:25:57;29.80;1.00
1476;DHT22;730;48.870;12.542;2023-07-16T09:28:23;29.70;1.00
1476;DHT22;730;48.870;12.542;2023-07-16T09:30:50;29.60;1.00
1476;DHT22;730;48.870;12.542;2023-07-16T09:33:19;29.60;1.00
1476;DHT22;730;48.870;12.542;2023-07-16T09:35:50;29.50;1.00
1476;DHT22;730;48.870;12.542;2023-07-16T09:38:17;29.50;1.00
1476;DHT22;730;48.870;12.542;2023-07-16T09:40:43;29.40;1.00
1476;DHT22;730;48.870;12.542;2023-07-16T09:43:11;29.50;1.00
1476;DHT22;730;48.870;12.542;2023-07-16T09:45:38;29.50;1.00
1476;DHT22;730;48.870;12.542;2023-07-16T09:48:05;29.50;1.00
1476;DHT22;730;48.870;12.542;2023-07-16T09:50:35;29.60;1.00
1476;DHT22;730;48.870;12.542;2023-07-16T09:53:04;29.70;1.00
1476;DHT22;730;48.870;12.542;2023-07-16T09:55:32;29.80;1.00
1476;DHT22;730;48.870;12.542;2023-07-16T09:58:06;30.00;1.00
1476;DHT22;730;48.870;12.542;2023-07-16T10:00:33;30.10;1.00
1476;DHT22;730;48.870;12.542;2023-07-16T10:03:00;30.40;1.00
1476;DHT22;730;48.870;12.542;2023-07-16T10:05:28;30.60;1.00
1476;DHT22;730;48.870;12.542;2023-07-16T10:07:59;30.70;1.00
1476;DHT22;730;48.870;12.542;2023-07-16T10:10:46;30.80;1.00
1476;DHT22;730;48.870;12.542;2023-07-16T10:13:17;30.90;1.00
1476;DHT22;730;48.870;12.542;2023-07-16T10:15:57;31.00;1.00
1476;DHT22;730;48.870;12.542;2023-07-16T10:18:28;31.10;1.00
1476;DHT22;730;48.870;12.542;2023-07-16T10:21:09;31.20;1.00
1476;DHT22;730;48.870;12.542;2023-07-16T10:23:39;31.30;1.00
1476;DHT22;730;48.870;12.542;2023-07-16T10:26:06;31.40;1.00
1476;DHT22;730;48.870;12.542;2023-07-16T10:28:33;31.50;1.00
1476;DHT22;730;48.870;12.542;2023-07-16T10:30:59;31.60;1.00
1476;DHT22;730;48.870;12.542;2023-07-16T10:33:28;31.70;1.00
1476;DHT22;730;48.870;12.542;2023-07-16T10:35:56;31.80;1.00
1476;DHT22;730;48.870;12.542;2023-07-16T10:38:23;31.90;1.00
1476;DHT22;730;48.870;12.542;2023-07-16T10:40:49;32.10;1.00
1476;DHT22;730;48.870;12.542;2023-07-16T10:43:15;32.20;1.00
1476;DHT22;730;48.870;12.542;2023-07-16T10:45:42;32.10;1.00
1476;DHT22;730;48.870;12.542;2023-07-16T10:48:08;32.00;1.00
1476;DHT22;730;48.870;12.542;2023-07-16T10:50:35;32.10;1.00
1476;DHT22;730;48.870;12.542;2023-07-16T10:53:01;32.10;1.00
1476;DHT22;730;48.870;12.542;2023-07-16T10:55:29;32.20;1.00
1476;DHT22;730;48.870;12.542;2023-07-16T10:57:56;32.30;1.00
1476;DHT22;730;48.870;12.542;2023-07-16T11:00:22;32.40;1.00
1476;DHT22;730;48.870;12.542;2023-07-16T11:02:52;32.40;1.00
1476;DHT22;730;48.870;12.542;2023-07-16T11:05:18;32.40;1.00
1476;DHT22;730;48.870;12.542;2023-07-16T11:07:46;32.50;1.00
1476;DHT22;730;48.870;12.542;2023-07-16T11:10:14;32.50;1.00
1476;DHT22;730;48.870;12.542;2023-07-16T11:12:41;32.50;1.00
1476;DHT22;730;48.870;12.542;2023-07-16T11:15:08;32.50;1.00
1476;DHT22;730;48.870;12.542;2023-07-16T11:17:37;32.60;1.00
1476;DHT22;730;48.870;12.542;2023-07-16T11:20:07;32.70;1.00
1476;DHT22;730;48.870;12.542;2023-07-16T11:22:37;32.80;1.00
1476;DHT22;730;48.870;12.542;2023-07-16T11:25:12;32.70;1.00
1476;DHT22;730;48.870;12.542;2023-07-16T11:27:41;32.50;1.00
1476;DHT22;730;48.870;12.542;2023-07-16T11:30:08;32.40;1.00
1476;DHT22;730;48.870;12.542;2023-07-16T11:32:36;32.60;1.00
1476;DHT22;730;48.870;12.542;2023-07-16T11:35:04;32.70;1.00
1476;DHT22;730;48.870;12.542;2023-07-16T11:37:32;32.90;1.00
1476;DHT22;730;48.870;12.542;2023-07-16T11:40:02;33.10;1.00
1476;DHT22;730;48.870;12.542;2023-07-16T11:42:34;33.30;1.00
1476;DHT22;730;48.870;12.542;2023-07-16T11:45:01;33.40;1.00
1476;DHT22;730;48.870;12.542;2023-07-16T11:47:28;33.50;1.00
1476;DHT22;730;48.870;12.542;2023-07-16T11:49:54;33.40;1.00
1476;DHT22;730;48.870;12.542;2023-07-16T11:52:22;33.30;1.00
1476;DHT22;730;48.870;12.542;2023-07-16T11:54:49;33.40;1.00
1476;DHT22;730;48.870;12.542;2023-07-16T11:57:15;33.40;1.00
1476;DHT22;730;48.870;12.542;2023-07-16T11:59:41;33.40;1.00
1476;DHT22;730;48.870;12.542;2023-07-16T12:02:08;33.40;1.00
1476;DHT22;730;48.870;12.542;2023-07-16T12:04:34;33.30;1.00
1476;DHT22;730;48.870;12.542;2023-07-16T12:07:00;33.30;1.00
1476;DHT22;730;48.870;12.542;2023-07-16T12:09:26;33.20;1.00
1476;DHT22;730;48.870;12.542;2023-07-16T12:11:52;33.30;1.00
1476;DHT22;730;48.870;12.542;2023-07-16T12:14:18;33.50;1.00
1476;DHT22;730;48.870;12.542;2023-07-16T12:16:44;33.70;1.00
1476;DHT22;730;48.870;12.542;2023-07-16T12:19:10;33.90;1.00
1476;DHT22;730;48.870;12.542;2023-07-16T12:21:36;33.80;1.00
1476;DHT22;730;48.870;12.542;2023-07-16T12:24:03;33.80;1.00
1476;DHT22;730;48.870;12.542;2023-07-16T12:26:29;33.80;1.00
1476;DHT22;730;48.870;12.542;2023-07-16T12:28:55;33.80;1.00
1476;DHT22;730;48.870;12.542;2023-07-16T12:31:21;33.70;1.00
1476;DHT22;730;48.870;12.542;2023-07-16T12:33:47;33.70;1.00
1476;DHT22;730;48.870;12.542;2023-07-16T12:36:14;33.70;1.00
1476;DHT22;730;48.870;12.542;2023-07-16T12:38:41;33.70;1.00
1476;DHT22;730;48.870;12.542;2023-07-16T12:41:07;33.60;1.00
1476;DHT22;730;48.870;12.542;2023-07-16T12:43:33;33.50;1.00
1476;DHT22;730;48.870;12.542;2023-07-16T12:46:01;33.30;1.00
1476;DHT22;730;48.870;12.542;2023-07-16T12:48:29;33.20;1.00
1476;DHT22;730;48.870;12.542;2023-07-16T12:50:55;33.20;1.00
1476;DHT22;730;48.870;12.542;2023-07-16T12:53:23;33.30;1.00
1476;DHT22;730;48.870;12.542;2023-07-16T12:55:49;33.40;1.00
1476;DHT22;730;48.870;12.542;2023-07-16T12:58:15;33.50;1.00
1476;DHT22;730;48.870;12.542;2023-07-16T13:00:41;33.70;1.00
1476;DHT22;730;48.870;12.542;2023-07-16T13:03:07;33.90;1.00
1476;DHT22;730;48.870;12.542;2023-07-16T13:05:40;34.00;1.00
1476;DHT22;730;48.870;12.542;2023-07-16T13:08:07;34.00;1.00
1476;DHT22;730;48.870;12.542;2023-07-16T13:10:33;34.20;1.00
1476;DHT22;730;48.870;12.542;2023-07-16T13:12:59;34.30;1.00
1476;DHT22;730;48.870;12.542;2023-07-16T13:15:25;34.40;1.00
1476;DHT22;730;48.870;12.542;2023-07-16T13:17:51;34.60;1.00
1476;DHT22;730;48.870;12.542;2023-07-16T13:20:18;34.70;1.00
1476;DHT22;730;48.870;12.542;2023-07-16T13:22:45;34.90;1.00
1476;DHT22;730;48.870;12.542;2023-07-16T13:25:11;35.00;1.00
1476;DHT22;730;48.870;12.542;2023-07-16T13:27:37;35.00;1.00
1476;DHT22;730;48.870;12.542;2023-07-16T13:30:04;35.10;1.00
1476;DHT22;730;48.870;12.542;2023-07-16T13:32:30;35.30;1.00
1476;DHT22;730;48.870;12.542;2023-07-16T13:34:56;35.40;1.00
1476;DHT22;730;48.870;12.542;2023-07-16T13:37:22;35.60;1.00
1476;DHT22;730;48.870;12.542;2023-07-16T13:39:48;35.80;1.00
1476;DHT22;730;48.870;12.542;2023-07-16T13:42:14;36.00;1.00
1476;DHT22;730;48.870;12.542;2023-07-16T13:44:40;36.00;1.00
1476;DHT22;730;48.870;12.542;2023-07-16T13:47:06;36.00;1.00
1476;DHT22;730;48.870;12.542;2023-07-16T13:49:32;35.90;1.00
1476;DHT22;730;48.870;12.542;2023-07-16T13:51:58;35.90;1.00
1476;DHT22;730;48.870;12.542;2023-07-16T13:54:24;36.00;1.00
1476;DHT22;730;48.870;12.542;2023-07-16T13:56:50;36.10;1.00
1476;DHT22;730;48.870;12.542;2023-07-16T13:59:16;36.30;1.00
1476;DHT22;730;48.870;12.542;2023-07-16T14:01:43;36.60;1.00
1476;DHT22;730;48.870;12.542;2023-07-16T14:04:09;36.80;1.00
1476;DHT22;730;48.870;12.542;2023-07-16T14:06:35;36.80;1.00
1476;DHT22;730;48.870;12.542;2023-07-16T14:09:02;37.30;1.00
1476;DHT22;730;48.870;12.542;2023-07-16T14:11:28;37.60;1.00
1476;DHT22;730;48.870;12.542;2023-07-16T14:13:54;37.90;1.00
1476;DHT22;730;48.870;12.542;2023-07-16T14:16:20;38.10;1.00
1476;DHT22;730;48.870;12.542;2023-07-16T14:18:51;38.20;1.00
1476;DHT22;730;48.870;12.542;2023-07-16T14:21:18;38.30;1.00
1476;DHT22;730;48.870;12.542;2023-07-16T14:23:44;38.20;1.00
1476;DHT22;730;48.870;12.542;2023-07-16T14:26:10;37.90;1.00
1476;DHT22;730;48.870;12.542;2023-07-16T14:28:36;37.50;1.00
1476;DHT22;730;48.870;12.542;2023-07-16T14:31:03;37.10;1.00
1476;DHT22;730;48.870;12.542;2023-07-16T14:33:29;36.80;1.00
1476;DHT22;730;48.870;12.542;2023-07-16T14:35:55;36.60;1.00
1476;DHT22;730;48.870;12.542;2023-07-16T14:38:21;36.50;1.00
1476;DHT22;730;48.870;12.542;2023-07-16T14:40:47;36.40;1.00
1476;DHT22;730;48.870;12.542;2023-07-16T14:43:14;36.40;1.00
1476;DHT22;730;48.870;12.542;2023-07-16T14:45:40;36.60;1.00
1476;DHT22;730;48.870;12.542;2023-07-16T14:48:06;36.70;1.00
1476;DHT22;730;48.870;12.542;2023-07-16T14:50:32;36.80;1.00
1476;DHT22;730;48.870;12.542;2023-07-16T14:52:58;36.70;1.00
1476;DHT22;730;48.870;12.542;2023-07-16T14:55:24;36.50;1.00
1476;DHT22;730;48.870;12.542;2023-07-16T14:57:50;36.20;1.00
1476;DHT22;730;48.870;12.542;2023-07-16T15:00:16;36.00;1.00
1476;DHT22;730;48.870;12.542;2023-07-16T15:02:43;35.90;1.00
1476;DHT22;730;48.870;12.542;2023-07-16T15:05:09;35.70;1.00
1476;DHT22;730;48.870;12.542;2023-07-16T15:07:35;35.50;1.00
1476;DHT22;730;48.870;12.542;2023-07-16T15:10:05;35.30;1.00
1476;DHT22;730;48.870;12.542;2023-07-16T15:12:31;35.10;1.00
1476;DHT22;730;48.870;12.542;2023-07-16T15:14:57;34.90;1.00
1476;DHT22;730;48.870;12.542;2023-07-16T15:17:24;34.70;1.00
1476;DHT22;730;48.870;12.542;2023-07-16T15:19:51;34.60;1.00
1476;DHT22;730;48.870;12.542;2023-07-16T15:22:17;34.50;1.00
1476;DHT22;730;48.870;12.542;2023-07-16T15:24:49;34.50;1.00
1476;DHT22;730;48.870;12.542;2023-07-16T15:27:16;34.40;1.00
1476;DHT22;730;48.870;12.542;2023-07-16T15:29:42;34.30;1.00
1476;DHT22;730;48.870;12.542;2023-07-16T15:32:08;34.20;1.00
1476;DHT22;730;48.870;12.542;2023-07-16T15:34:37;34.00;1.00
1476;DHT22;730;48.870;12.542;2023-07-16T15:37:03;33.90;1.00
1476;DHT22;730;48.870;12.542;2023-07-16T15:39:31;33.90;1.00
1476;DHT22;730;48.870;12.542;2023-07-16T15:42:01;33.80;1.00
1476;DHT22;730;48.870;12.542;2023-07-16T15:44:27;33.70;1.00
1476;DHT22;730;48.870;12.542;2023-07-16T15:46:53;33.60;1.00
1476;DHT22;730;48.870;12.542;2023-07-16T15:49:19;33.60;1.00
1476;DHT22;730;48.870;12.542;2023-07-16T15:51:45;33.30;1.00
1476;DHT22;730;48.870;12.542;2023-07-16T15:54:11;33.20;1.00
1476;DHT22;730;48.870;12.542;2023-07-16T15:56:37;33.10;1.00
1476;DHT22;730;48.870;12.542;2023-07-16T15:59:03;32.90;1.00
1476;DHT22;730;48.870;12.542;2023-07-16T16:01:29;32.70;1.00
1476;DHT22;730;48.870;12.542;2023-07-16T16:03:55;32.60;1.00
1476;DHT22;730;48.870;12.542;2023-07-16T16:06:22;32.30;1.00
1476;DHT22;730;48.870;12.542;2023-07-16T16:08:48;32.20;1.00
1476;DHT22;730;48.870;12.542;2023-07-16T16:11:15;32.20;1.00
1476;DHT22;730;48.870;12.542;2023-07-16T16:13:41;32.10;1.00
1476;DHT22;730;48.870;12.542;2023-07-16T16:16:07;32.00;1.00
1476;DHT22;730;48.870;12.542;2023-07-16T16:18:33;32.00;1.00
1476;DHT22;730;48.870;12.542;2023-07-16T16:21:00;32.00;1.00